createdAt,value
2019-01-15T00:02:12.261Z,21.70
2019-01-15T00:04:42.894Z,21.40
2019-01-15T00:07:13.343Z,21.40
2019-01-15T00:09:45.576Z,21.50
2019-01-15T00:12:16.085Z,21.50
2019-01-15T00:14:46.511Z,21.50
2019-01-15T00:17:16.975Z,21.30
2019-01-15T00:19:47.392Z,21.50
2019-01-15T00:22:17.757Z,21.50
2019-01-15T00:24:48.182Z,21.40
2019-01-15T00:27:18.734Z,21.40
2019-01-15T00:29:49.048Z,21.40
2019-01-15T00:32:19.382Z,21.60
2019-01-15T00:34:49.843Z,21.60
2019-01-15T00:37:20.307Z,21.50
2019-01-15T00:39:55.148Z,21.60
2019-01-15T00:42:28.715Z,21.60
2019-01-15T00:44:59.503Z,21.50
2019-01-15T00:47:32.158Z,21.40
2019-01-15T00:50:04.275Z,21.20
2019-01-15T00:52:36.218Z,21.20
2019-01-15T00:55:19.481Z,21.40
2019-01-15T00:58:15.251Z,21.10
2019-01-15T01:00:49.185Z,21.20
2019-01-15T01:03:21.320Z,20.80
2019-01-15T01:05:51.582Z,20.40
2019-01-15T01:08:21.920Z,20.40
2019-01-15T01:10:52.345Z,20.40
2019-01-15T01:13:25.800Z,20.10
2019-01-15T01:16:29.626Z,20.20
2019-01-15T01:19:00.279Z,20.10
2019-01-15T01:21:30.656Z,20.50
2019-01-15T01:24:17.805Z,20.60
2019-01-15T01:26:58.939Z,20.50
2019-01-15T01:29:31.222Z,20.20
2019-01-15T01:32:20.310Z,20.10
2019-01-15T01:35:11.667Z,20.20
2019-01-15T01:38:25.187Z,20.20
2019-01-15T01:41:07.935Z,20.10
2019-01-15T01:43:41.866Z,20.20
2019-01-15T01:46:13.886Z,19.70
2019-01-15T01:48:48.086Z,19.70
2019-01-15T01:51:28.775Z,19.90
2019-01-15T01:53:56.043Z,19.70
2019-01-15T01:59:42.931Z,19.80
2019-01-15T02:02:22.601Z,19.70
2019-01-15T02:08:27.034Z,19.30
2019-01-15T02:10:21.653Z,19.30
2019-01-15T02:13:05.036Z,19.20
2019-01-15T02:18:28.271Z,19.30
2019-01-15T02:21:28.378Z,19.10
2019-01-15T02:24:01.691Z,19.10
2019-01-15T02:26:42.367Z,19.40
2019-01-15T02:29:17.703Z,19.50
2019-01-15T02:31:54.409Z,19.60
2019-01-15T02:34:26.052Z,19.70
2019-01-15T02:37:06.505Z,19.70
2019-01-15T02:45:46.447Z,19.90
2019-01-15T02:48:37.200Z,19.60
2019-01-15T02:51:21.711Z,19.60
2019-01-15T02:53:58.800Z,19.40
2019-01-15T02:56:45.666Z,19.40
2019-01-15T03:05:46.128Z,19.50
2019-01-15T03:08:10.731Z,19.70
2019-01-15T03:10:50.298Z,19.70
2019-01-15T03:13:23.416Z,19.70
2019-01-15T03:16:03.809Z,19.80
2019-01-15T03:18:41.546Z,19.70
2019-01-15T03:21:12.010Z,19.70
2019-01-15T03:23:46.360Z,19.70
2019-01-15T03:26:16.780Z,19.70
2019-01-15T03:28:57.071Z,19.70
2019-01-15T03:31:28.062Z,19.70
2019-01-15T03:34:02.547Z,19.70
2019-01-15T03:36:33.048Z,19.70
2019-01-15T03:39:10.644Z,19.60
2019-01-15T03:41:45.569Z,19.70
2019-01-15T03:44:16.001Z,19.50
2019-01-15T03:46:51.736Z,19.30
2019-01-15T03:49:22.162Z,19.20
2019-01-15T03:51:52.870Z,19.00
2019-01-15T03:54:23.256Z,19.20
2019-01-15T03:56:57.741Z,19.00
2019-01-15T03:59:28.634Z,18.90
2019-01-15T04:02:00.510Z,19.10
2019-01-15T04:04:30.877Z,18.90
2019-01-15T04:07:02.872Z,18.80
2019-01-15T04:09:33.412Z,19.00
2019-01-15T04:12:04.990Z,19.10
2019-01-15T04:14:35.478Z,19.20
2019-01-15T04:17:07.228Z,18.90
2019-01-15T04:19:40.925Z,18.90
2019-01-15T04:22:13.325Z,18.80
2019-01-15T04:24:46.409Z,18.50
2019-01-15T04:27:21.026Z,18.50
2019-01-15T04:29:52.848Z,18.50
2019-01-15T04:32:25.974Z,18.60
2019-01-15T04:34:57.856Z,18.40
2019-01-15T04:37:33.016Z,18.60
2019-01-15T04:40:07.877Z,18.70
2019-01-15T04:42:40.462Z,18.80
2019-01-15T04:45:13.179Z,18.80
2019-01-15T04:47:55.231Z,18.90
2019-01-15T04:50:27.193Z,18.60
2019-01-15T04:53:00.394Z,18.60
2019-01-15T04:55:31.065Z,18.50
2019-01-15T04:58:13.341Z,18.40
2019-01-15T05:00:44.522Z,18.50
2019-01-15T05:03:15.264Z,18.60
2019-01-15T05:05:45.745Z,18.70
2019-01-15T05:08:22.437Z,18.80
2019-01-15T05:10:52.795Z,18.80
2019-01-15T05:13:27.326Z,18.70
2019-01-15T05:16:15.279Z,18.80
2019-01-15T05:18:46.908Z,18.80
2019-01-15T05:21:17.316Z,18.70
2019-01-15T05:23:47.729Z,18.50
2019-01-15T05:26:18.199Z,18.60
2019-01-15T05:28:54.438Z,18.70
2019-01-15T05:31:24.943Z,18.70
2019-01-15T05:33:55.954Z,18.60
2019-01-15T05:36:26.284Z,18.60
2019-01-15T05:38:59.861Z,18.60
2019-01-15T05:41:30.354Z,18.60
2019-01-15T05:44:00.762Z,18.70
2019-01-15T05:46:31.112Z,18.70
2019-01-15T05:49:03.540Z,18.70
2019-01-15T05:51:35.382Z,18.70
2019-01-15T05:54:08.742Z,18.50
2019-01-15T05:56:39.221Z,18.50
2019-01-15T05:59:09.889Z,18.50
2019-01-15T06:01:40.447Z,18.50
2019-01-15T06:04:11.030Z,18.50
2019-01-15T06:06:50.034Z,18.60
2019-01-15T06:09:20.484Z,18.50
2019-01-15T06:11:50.883Z,18.50
2019-01-15T06:14:21.323Z,18.50
2019-01-15T06:16:54.664Z,18.50
2019-01-15T06:19:25.177Z,18.50
2019-01-15T06:21:57.159Z,18.40
2019-01-15T06:24:27.585Z,18.40
2019-01-15T06:26:57.935Z,18.40
2019-01-15T06:29:28.465Z,18.40
2019-01-15T06:32:19.341Z,18.30
2019-01-15T06:34:49.717Z,18.30
2019-01-15T06:37:20.269Z,18.30
2019-01-15T06:39:56.653Z,18.30
2019-01-15T06:42:27.036Z,18.20
2019-01-15T06:44:57.569Z,18.30
2019-01-15T06:47:27.913Z,18.30
2019-01-15T06:49:58.962Z,18.30
2019-01-15T06:52:29.702Z,18.20
2019-01-15T06:55:19.975Z,18.20
2019-01-15T06:57:50.668Z,18.20
2019-01-15T07:00:29.352Z,18.10
2019-01-15T07:03:04.323Z,18.20
2019-01-15T07:05:35.743Z,18.20
2019-01-15T07:08:08.820Z,18.20
2019-01-15T07:10:43.680Z,18.20
2019-01-15T07:16:22.209Z,18.10
2019-01-15T07:18:56.595Z,18.00
2019-01-15T07:21:27.225Z,18.00
2019-01-15T07:24:00.694Z,18.00
2019-01-15T07:26:31.177Z,18.10
2019-01-15T07:29:10.886Z,17.90
2019-01-15T07:32:09.009Z,17.90
2019-01-15T07:35:04.194Z,17.90
2019-01-15T07:37:34.593Z,17.90
2019-01-15T07:40:09.195Z,17.60
2019-01-15T07:43:10.120Z,17.60
2019-01-15T07:45:31.757Z,17.60
2019-01-15T07:48:08.341Z,17.60
2019-01-15T07:50:41.349Z,17.70
2019-01-15T07:53:11.453Z,17.60
2019-01-15T07:55:56.916Z,17.50
2019-01-15T07:58:25.837Z,17.50
2019-01-15T08:01:01.814Z,17.50
2019-01-15T08:03:32.483Z,17.50
2019-01-15T08:06:08.130Z,17.40
2019-01-15T08:08:57.903Z,17.60
2019-01-15T08:11:28.370Z,17.70
2019-01-15T08:14:12.129Z,17.80
2019-01-15T08:16:59.658Z,17.80
2019-01-15T08:19:25.454Z,17.50
2019-01-15T08:22:00.015Z,17.60
2019-01-15T08:24:30.541Z,17.60
2019-01-15T08:27:02.696Z,17.70
2019-01-15T08:29:33.001Z,17.70
2019-01-15T08:32:03.382Z,17.60
2019-01-15T08:34:33.769Z,17.60
2019-01-15T08:37:04.132Z,17.70
2019-01-15T08:39:34.644Z,17.80
2019-01-15T08:42:05.100Z,17.80
2019-01-15T08:44:35.643Z,17.70
2019-01-15T08:47:06.142Z,17.60
2019-01-15T08:49:36.695Z,17.70
2019-01-15T08:52:15.770Z,17.80
2019-01-15T08:54:43.094Z,17.80
2019-01-15T08:57:16.069Z,17.80
2019-01-15T08:59:47.863Z,17.80
2019-01-15T09:02:20.893Z,17.80
2019-01-15T09:04:56.772Z,17.70
2019-01-15T09:07:27.536Z,17.80
2019-01-15T09:10:01.023Z,17.90
2019-01-15T09:12:31.576Z,17.90
2019-01-15T09:15:24.357Z,17.90
2019-01-15T09:17:57.889Z,17.80
2019-01-15T09:20:28.273Z,17.90
2019-01-15T09:22:58.713Z,17.90
2019-01-15T09:25:29.067Z,17.90
2019-01-15T09:27:59.498Z,17.90
2019-01-15T09:30:29.891Z,17.90
2019-01-15T09:33:00.354Z,17.90
2019-01-15T09:35:30.761Z,17.90
2019-01-15T09:38:01.602Z,17.90
2019-01-15T09:40:31.993Z,17.80
2019-01-15T09:43:02.393Z,17.90
2019-01-15T09:45:32.752Z,17.90
2019-01-15T09:48:04.303Z,17.80
2019-01-15T09:50:34.786Z,17.80
2019-01-15T09:53:05.614Z,17.80
2019-01-15T09:55:36.178Z,17.90
2019-01-15T09:58:07.242Z,18.10
2019-01-15T10:00:37.848Z,17.80
2019-01-15T10:03:08.420Z,17.80
2019-01-15T10:05:38.755Z,17.50
2019-01-15T10:08:09.045Z,17.40
2019-01-15T10:10:39.424Z,17.40
2019-01-15T10:13:09.906Z,17.50
2019-01-15T10:15:40.370Z,17.70
2019-01-15T10:18:10.702Z,17.30
2019-01-15T10:20:41.150Z,17.20
2019-01-15T10:23:11.617Z,17.30
2019-01-15T10:25:42.611Z,17.30
2019-01-15T10:28:15.342Z,17.40
2019-01-15T10:30:57.251Z,17.50
2019-01-15T10:33:55.162Z,17.40
2019-01-15T10:36:24.356Z,17.50
2019-01-15T10:38:54.821Z,17.40
2019-01-15T10:41:25.349Z,17.50
2019-01-15T10:43:55.654Z,17.30
2019-01-15T10:46:26.068Z,17.40
2019-01-15T10:48:56.445Z,17.30
2019-01-15T10:51:26.792Z,17.30
2019-01-15T10:53:57.493Z,17.20
2019-01-15T10:56:27.842Z,17.10
2019-01-15T10:58:58.313Z,16.90
2019-01-15T11:01:28.658Z,17.00
2019-01-15T11:03:59.761Z,17.10
2019-01-15T11:06:30.303Z,17.20
2019-01-15T11:09:00.668Z,17.20
2019-01-15T11:11:31.161Z,17.20
2019-01-15T11:14:01.576Z,17.20
2019-01-15T11:16:31.839Z,17.20
2019-01-15T11:19:02.291Z,17.20
2019-01-15T11:21:32.599Z,17.20
2019-01-15T11:24:02.952Z,17.20
2019-01-15T11:26:33.424Z,17.20
2019-01-15T11:29:03.726Z,17.20
2019-01-15T11:31:34.109Z,17.30
2019-01-15T11:34:04.571Z,17.20
2019-01-15T11:36:34.948Z,17.20
2019-01-15T11:39:07.772Z,17.10
2019-01-15T11:41:38.154Z,17.30
2019-01-15T11:44:08.466Z,17.40
2019-01-15T11:46:38.908Z,17.30
2019-01-15T11:49:09.314Z,17.30
2019-01-15T11:51:39.824Z,17.30
2019-01-15T11:54:10.729Z,17.40
2019-01-15T11:56:41.085Z,17.40
2019-01-15T11:59:11.855Z,17.50
2019-01-15T12:01:42.987Z,17.40
2019-01-15T12:04:14.767Z,17.30
2019-01-15T12:06:56.241Z,17.30
2019-01-15T12:09:28.066Z,17.30
2019-01-15T12:12:15.006Z,17.20
2019-01-15T12:14:46.890Z,17.10
2019-01-15T12:17:30.595Z,16.90
2019-01-15T12:20:05.333Z,16.90
2019-01-15T12:22:55.173Z,16.80
2019-01-15T12:25:29.946Z,16.80
2019-01-15T12:28:04.524Z,16.60
2019-01-15T12:30:51.741Z,16.60
2019-01-15T12:33:26.336Z,16.40
2019-01-15T12:36:07.178Z,16.30
2019-01-15T12:38:48.041Z,16.20
2019-01-15T12:41:24.534Z,16.20
2019-01-15T12:43:56.263Z,16.20
2019-01-15T12:46:31.488Z,16.20
2019-01-15T12:49:08.982Z,16.20
2019-01-15T12:51:40.738Z,16.10
2019-01-15T12:54:24.842Z,16.30
2019-01-15T12:57:19.083Z,16.60
2019-01-15T13:00:01.115Z,16.90
2019-01-15T13:02:49.052Z,16.80
2019-01-15T13:05:36.761Z,16.80
2019-01-15T13:08:27.143Z,17.10
2019-01-15T13:11:15.075Z,17.40
2019-01-15T13:14:05.182Z,17.70
2019-01-15T13:16:38.142Z,17.70
2019-01-15T13:19:12.997Z,17.90
2019-01-15T13:21:44.848Z,18.00
2019-01-15T13:24:22.231Z,18.50
2019-01-15T13:26:57.002Z,19.00
2019-01-15T13:29:40.741Z,19.10
2019-01-15T13:32:20.138Z,19.20
2019-01-15T13:35:03.747Z,19.10
2019-01-15T13:37:47.460Z,18.90
2019-01-15T13:40:31.333Z,18.80
2019-01-15T13:43:08.851Z,18.70
2019-01-15T13:45:49.540Z,18.70
2019-01-15T13:48:21.266Z,18.80
2019-01-15T13:53:57.270Z,19.00
2019-01-15T13:56:35.263Z,19.00
2019-01-15T13:59:07.267Z,19.20
2019-01-15T14:01:51.062Z,19.20
2019-01-15T14:04:22.773Z,19.20
2019-01-15T14:06:54.763Z,19.30
2019-01-15T14:09:32.815Z,19.50
2019-01-15T14:12:09.792Z,19.60
2019-01-15T14:14:44.742Z,19.60
2019-01-15T14:17:32.478Z,19.60
2019-01-15T14:20:12.869Z,19.70
2019-01-15T14:22:50.554Z,19.60
2019-01-15T14:25:22.401Z,20.20
2019-01-15T14:28:00.205Z,20.20
2019-01-15T14:30:35.012Z,20.90
2019-01-15T14:33:23.219Z,21.30
2019-01-15T14:36:11.454Z,21.30
2019-01-15T14:38:59.351Z,20.80
2019-01-15T14:41:47.472Z,21.10
2019-01-15T14:44:35.093Z,21.30
2019-01-15T14:47:08.165Z,21.30
2019-01-15T14:49:48.716Z,21.10
2019-01-15T14:52:20.426Z,21.00
2019-01-15T14:54:52.301Z,20.90
2019-01-15T14:57:24.335Z,20.60
2019-01-15T14:59:56.410Z,20.70
2019-01-15T15:02:30.817Z,21.20
2019-01-15T15:05:02.823Z,22.30
2019-01-15T15:07:34.609Z,22.50
2019-01-15T15:10:10.463Z,22.30
2019-01-15T15:12:48.407Z,22.10
2019-01-15T15:15:20.147Z,22.80
2019-01-15T15:18:08.308Z,23.30
2019-01-15T15:20:40.097Z,23.00
2019-01-15T15:23:14.844Z,23.30
2019-01-15T15:25:46.761Z,24.00
2019-01-15T15:28:33.644Z,24.80
2019-01-15T15:31:05.379Z,24.30
2019-01-15T15:33:37.852Z,23.70
2019-01-15T15:36:18.504Z,24.00
2019-01-15T15:38:51.753Z,24.80
2019-01-15T15:41:40.011Z,24.70
2019-01-15T15:44:36.469Z,24.90
2019-01-15T15:47:08.280Z,25.40
2019-01-15T15:49:40.275Z,25.50
2019-01-15T15:52:14.852Z,25.60
2019-01-15T15:54:59.661Z,26.20
2019-01-15T15:57:46.523Z,26.30
2019-01-15T16:00:22.830Z,26.40
2019-01-15T16:03:01.494Z,27.30
2019-01-15T16:05:50.265Z,27.30
2019-01-15T16:08:38.222Z,27.20
2019-01-15T16:11:26.255Z,27.60
2019-01-15T16:14:10.072Z,26.50
2019-01-15T16:16:59.958Z,26.90
2019-01-15T16:19:32.829Z,27.50
2019-01-15T16:22:20.687Z,28.10
2019-01-15T16:25:10.605Z,28.40
2019-01-15T16:28:00.847Z,27.60
2019-01-15T16:30:35.309Z,27.80
2019-01-15T16:33:07.178Z,27.80
2019-01-15T16:35:39.053Z,27.40
2019-01-15T16:38:18.840Z,27.80
2019-01-15T16:40:50.454Z,28.30
2019-01-15T16:43:22.443Z,28.80
2019-01-15T16:45:57.408Z,28.50
2019-01-15T16:48:31.900Z,28.70
2019-01-15T16:51:09.391Z,28.80
2019-01-15T16:53:57.759Z,29.10
2019-01-15T16:56:29.612Z,29.20
2019-01-15T16:59:08.405Z,28.90
2019-01-15T17:01:46.116Z,29.00
2019-01-15T17:04:27.028Z,29.10
2019-01-15T17:07:03.382Z,29.10
2019-01-15T17:09:53.254Z,29.60
2019-01-15T17:12:35.980Z,29.60
2019-01-15T17:15:08.862Z,30.10
2019-01-15T17:18:07.574Z,29.90
2019-01-15T17:20:44.688Z,29.10
2019-01-15T17:23:35.247Z,29.60
2019-01-15T17:26:10.715Z,29.90
2019-01-15T17:28:54.616Z,30.00
2019-01-15T17:31:35.535Z,29.80
2019-01-15T17:34:10.489Z,29.50
2019-01-15T17:36:58.462Z,28.40
2019-01-15T17:39:32.327Z,29.00
2019-01-15T17:42:06.899Z,29.60
2019-01-15T17:44:42.875Z,29.00
2019-01-15T17:47:32.680Z,29.20
2019-01-15T17:50:20.204Z,29.70
2019-01-15T17:53:08.078Z,29.80
2019-01-15T17:55:57.266Z,29.80
2019-01-15T17:58:29.170Z,29.00
2019-01-15T18:01:19.822Z,28.10
2019-01-15T18:03:55.217Z,28.10
2019-01-15T18:06:48.356Z,28.70
2019-01-15T18:09:22.524Z,28.60
2019-01-15T18:12:19.439Z,28.80
2019-01-15T18:14:56.706Z,29.00
2019-01-15T18:17:35.115Z,29.30
2019-01-15T18:20:21.734Z,29.40
2019-01-15T18:22:54.058Z,30.10
2019-01-15T18:25:27.442Z,29.90
2019-01-15T18:28:16.146Z,30.30
2019-01-15T18:30:48.453Z,30.50
2019-01-15T18:33:37.859Z,29.70
2019-01-15T18:36:28.670Z,29.90
2019-01-15T18:39:09.747Z,29.20
2019-01-15T18:41:47.382Z,28.90
2019-01-15T18:44:40.998Z,29.30
2019-01-15T18:47:31.494Z,29.20
2019-01-15T18:50:13.075Z,29.50
2019-01-15T18:52:48.158Z,29.80
2019-01-15T18:55:35.237Z,29.20
2019-01-15T18:58:23.390Z,29.90
2019-01-15T19:01:03.510Z,30.00
2019-01-15T19:03:34.429Z,30.10
2019-01-15T19:06:06.275Z,29.80
2019-01-15T19:08:56.407Z,29.00
2019-01-15T19:11:46.343Z,29.20
2019-01-15T19:14:33.543Z,28.90
2019-01-15T19:17:07.072Z,29.40
2019-01-15T19:19:38.628Z,28.90
2019-01-15T19:22:10.511Z,28.90
2019-01-15T19:24:51.502Z,29.20
2019-01-15T19:27:32.375Z,29.10
2019-01-15T19:30:16.328Z,29.40
2019-01-15T19:33:00.632Z,29.80
2019-01-15T19:35:35.637Z,29.70
2019-01-15T19:38:15.124Z,29.20
2019-01-15T19:41:06.284Z,29.20
2019-01-15T19:43:55.954Z,29.60
2019-01-15T19:46:33.619Z,30.30
2019-01-15T19:49:05.558Z,30.30
2019-01-15T19:51:43.374Z,30.20
2019-01-15T19:54:21.137Z,29.70
2019-01-15T19:56:59.083Z,30.10
2019-01-15T19:59:40.345Z,29.60
2019-01-15T20:02:27.485Z,29.10
2019-01-15T20:05:01.942Z,29.20
2019-01-15T20:07:50.272Z,29.50
2019-01-15T20:10:24.902Z,29.60
2019-01-15T20:12:57.064Z,29.40
2019-01-15T20:15:34.045Z,28.40
2019-01-15T20:18:14.944Z,27.70
2019-01-15T20:20:46.828Z,28.00
2019-01-15T20:23:21.786Z,27.40
2019-01-15T20:25:58.931Z,27.90
2019-01-15T20:28:33.762Z,28.10
2019-01-15T20:31:11.464Z,28.00
2019-01-15T20:33:49.381Z,28.30
2019-01-15T20:36:23.915Z,28.20
2019-01-15T20:39:13.670Z,28.50
2019-01-15T20:41:45.397Z,28.60
2019-01-15T20:44:20.599Z,28.70
2019-01-15T20:47:07.404Z,28.80
2019-01-15T20:49:55.520Z,29.10
2019-01-15T20:52:33.221Z,28.80
2019-01-15T20:55:05.077Z,28.90
2019-01-15T20:57:44.094Z,28.10
2019-01-15T21:00:22.580Z,28.00
2019-01-15T21:02:59.827Z,28.10
2019-01-15T21:05:40.638Z,28.40
2019-01-15T21:08:15.372Z,28.20
2019-01-15T21:11:05.045Z,27.80
2019-01-15T21:13:48.999Z,28.10
2019-01-15T21:16:21.700Z,27.70
2019-01-15T21:18:53.598Z,28.00
2019-01-15T21:21:29.504Z,28.20
2019-01-15T21:24:07.114Z,28.00
2019-01-15T21:26:41.939Z,28.60
2019-01-15T21:29:18.181Z,28.60
2019-01-15T21:31:52.887Z,28.10
2019-01-15T21:34:30.564Z,27.90
2019-01-15T21:37:18.844Z,27.70
2019-01-15T21:39:53.137Z,27.60
2019-01-15T21:42:28.121Z,27.80
2019-01-15T21:45:14.447Z,28.00
2019-01-15T21:47:46.440Z,28.10
2019-01-15T21:50:21.068Z,27.30
2019-01-15T21:52:53.087Z,27.20
2019-01-15T21:55:42.975Z,27.70
2019-01-15T21:58:23.888Z,27.70
2019-01-15T22:01:14.006Z,27.60
2019-01-15T22:03:55.111Z,27.30
2019-01-15T22:06:34.349Z,27.10
2019-01-15T22:09:11.758Z,26.80
2019-01-15T22:12:00.715Z,27.10
2019-01-15T22:14:51.081Z,26.50
2019-01-15T22:17:28.826Z,26.50
2019-01-15T22:20:18.100Z,25.90
2019-01-15T22:22:52.949Z,25.80
2019-01-15T22:25:37.396Z,25.50
2019-01-15T22:28:27.599Z,25.50
2019-01-15T22:31:09.629Z,25.40
2019-01-15T22:34:00.403Z,24.80
2019-01-15T22:36:50.852Z,25.00
2019-01-15T22:39:42.599Z,25.30
2019-01-15T22:42:22.050Z,25.40
2019-01-15T22:45:13.576Z,25.90
2019-01-15T22:48:12.529Z,25.50
2019-01-15T22:50:45.843Z,25.80
2019-01-15T22:53:22.206Z,25.70
2019-01-15T22:55:57.013Z,25.70
2019-01-15T22:58:39.381Z,25.80
2019-01-15T23:01:35.183Z,25.70
2019-01-15T23:04:33.973Z,25.70
2019-01-15T23:07:25.082Z,25.00
2019-01-15T23:10:22.140Z,25.00
2019-01-15T23:13:08.569Z,24.80
2019-01-15T23:15:59.868Z,24.60
2019-01-15T23:18:51.132Z,24.00
2019-01-15T23:22:34.150Z,24.00
2019-01-15T23:24:20.702Z,24.10
2019-01-15T23:27:14.108Z,24.10
2019-01-15T23:30:10.862Z,24.00
2019-01-15T23:32:50.972Z,23.80
2019-01-15T23:35:48.577Z,23.60
2019-01-15T23:38:36.456Z,23.10
2019-01-15T23:41:32.004Z,23.00
2019-01-15T23:44:22.236Z,23.00
2019-01-15T23:47:03.908Z,22.60
2019-01-15T23:49:36.091Z,22.40
2019-01-15T23:52:11.873Z,22.50
2019-01-15T23:54:59.837Z,22.30
2019-01-15T23:57:32.006Z,22.40
